sensor_id;sensor_type;location;lat;lon;timestamp;temperature;humidity
31046;DHT22;17711;54.018;9.300;2023-07-20T00:00:46;16.30;99.90
31046;DHT22;17711;54.018;9.300;2023-07-20T00:03:15;16.30;99.90
31046;DHT22;17711;54.018;9.300;2023-07-20T00:05:48;16.30;99.90
31046;DHT22;17711;54.018;9.300;2023-07-20T00:08:16;16.20;99.90
31046;DHT22;17711;54.018;9.300;2023-07-20T00:10:45;16.20;99.90
31046;DHT22;17711;54.018;9.300;2023-07-20T00:13:14;16.20;99.90
31046;DHT22;17711;54.018;9.300;2023-07-20T00:15:46;16.20;99.90
31046;DHT22;17711;54.018;9.300;2023-07-20T00:18:14;16.10;99.90
31046;DHT22;17711;54.018;9.300;2023-07-20T00:20:43;16.10;99.90
31046;DHT22;17711;54.018;9.300;2023-07-20T00:23:14;16.00;99.90
31046;DHT22;17711;54.018;9.300;2023-07-20T00:25:43;15.90;99.90
31046;DHT22;17711;54.018;9.300;2023-07-20T00:28:11;15.80;99.90
31046;DHT22;17711;54.018;9.300;2023-07-20T00:30:41;15.80;99.90
31046;DHT22;17711;54.018;9.300;2023-07-20T00:33:11;15.70;99.90
31046;DHT22;17711;54.018;9.300;2023-07-20T00:35:40;15.70;99.90
31046;DHT22;17711;54.018;9.300;2023-07-20T00:38:09;15.70;99.90
31046;DHT22;17711;54.018;9.300;2023-07-20T00:40:41;15.70;99.90
31046;DHT22;17711;54.018;9.300;2023-07-20T00:43:12;15.70;99.90
31046;DHT22;17711;54.018;9.300;2023-07-20T00:45:42;15.70;99.90
31046;DHT22;17711;54.018;9.300;2023-07-20T00:48:12;15.60;99.90
31046;DHT22;17711;54.018;9.300;2023-07-20T00:50:42;15.60;99.90
31046;DHT22;17711;54.018;9.300;2023-07-20T00:53:11;15.60;99.90
31046;DHT22;17711;54.018;9.300;2023-07-20T00:55:42;15.50;99.90
31046;DHT22;17711;54.018;9.300;2023-07-20T00:58:11;15.50;99.90
31046;DHT22;17711;54.018;9.300;2023-07-20T01:00:40;15.50;99.90
31046;DHT22;17711;54.018;9.300;2023-07-20T01:03:09;15.40;99.90
31046;DHT22;17711;54.018;9.300;2023-07-20T01:05:42;15.40;99.90
31046;DHT22;17711;54.018;9.300;2023-07-20T01:08:21;15.40;99.90
31046;DHT22;17711;54.018;9.300;2023-07-20T01:10:57;15.40;99.90
31046;DHT22;17711;54.018;9.300;2023-07-20T01:13:27;15.40;99.90
31046;DHT22;17711;54.018;9.300;2023-07-20T01:15:57;15.40;99.90
31046;DHT22;17711;54.018;9.300;2023-07-20T01:18:28;15.40;99.90
31046;DHT22;17711;54.018;9.300;2023-07-20T01:20:59;15.40;99.90
31046;DHT22;17711;54.018;9.300;2023-07-20T01:23:49;15.40;99.90
31046;DHT22;17711;54.018;9.300;2023-07-20T01:26:46;15.40;99.90
31046;DHT22;17711;54.018;9.300;2023-07-20T01:29:28;15.40;99.90
31046;DHT22;17711;54.018;9.300;2023-07-20T01:32:02;15.40;99.90
31046;DHT22;17711;54.018;9.300;2023-07-20T01:34:34;15.40;99.90
31046;DHT22;17711;54.018;9.300;2023-07-20T01:37:04;15.40;99.90
31046;DHT22;17711;54.018;9.300;2023-07-20T01:39:33;15.40;99.90
31046;DHT22;17711;54.018;9.300;2023-07-20T01:42:03;15.40;99.90
31046;DHT22;17711;54.018;9.300;2023-07-20T01:44:32;15.50;99.90
31046;DHT22;17711;54.018;9.300;2023-07-20T01:47:02;15.50;99.90
31046;DHT22;17711;54.018;9.300;2023-07-20T01:49:31;15.50;99.90
31046;DHT22;17711;54.018;9.300;2023-07-20T01:51:59;15.50;99.90
31046;DHT22;17711;54.018;9.300;2023-07-20T01:54:28;15.50;99.90
31046;DHT22;17711;54.018;9.300;2023-07-20T01:56:56;15.50;99.90
31046;DHT22;17711;54.018;9.300;2023-07-20T01:59:25;15.50;99.90
31046;DHT22;17711;54.018;9.300;2023-07-20T02:01:54;15.50;99.90
31046;DHT22;17711;54.018;9.300;2023-07-20T02:04:24;15.50;99.90
31046;DHT22;17711;54.018;9.300;2023-07-20T02:06:52;15.50;99.90
31046;DHT22;17711;54.018;9.300;2023-07-20T02:09:21;15.50;99.90
31046;DHT22;17711;54.018;9.300;2023-07-20T02:11:50;15.40;99.90
31046;DHT22;17711;54.018;9.300;2023-07-20T02:14:18;15.40;99.90
31046;DHT22;17711;54.018;9.300;2023-07-20T02:16:47;15.30;99.90
31046;DHT22;17711;54.018;9.300;2023-07-20T02:19:19;15.30;99.90
31046;DHT22;17711;54.018;9.300;2023-07-20T02:21:49;15.30;99.90
31046;DHT22;17711;54.018;9.300;2023-07-20T02:24:18;15.30;99.90
31046;DHT22;17711;54.018;9.300;2023-07-20T02:26:46;15.40;99.90
31046;DHT22;17711;54.018;9.300;2023-07-20T02:29:15;15.30;99.90
31046;DHT22;17711;54.018;9.300;2023-07-20T02:31:44;15.30;99.90
31046;DHT22;17711;54.018;9.300;2023-07-20T02:34:15;15.30;99.90
31046;DHT22;17711;54.018;9.300;2023-07-20T02:36:44;15.20;99.90
31046;DHT22;17711;54.018;9.300;2023-07-20T02:39:14;15.20;99.90
31046;DHT22;17711;54.018;9.300;2023-07-20T02:41:43;15.20;99.90
31046;DHT22;17711;54.018;9.300;2023-07-20T02:44:12;15.10;99.90
31046;DHT22;17711;54.018;9.300;2023-07-20T02:46:42;15.00;99.90
31046;DHT22;17711;54.018;9.300;2023-07-20T02:49:10;15.00;99.90
31046;DHT22;17711;54.018;9.300;2023-07-20T02:51:39;14.90;99.90
31046;DHT22;17711;54.018;9.300;2023-07-20T02:54:08;14.80;99.90
31046;DHT22;17711;54.018;9.300;2023-07-20T02:56:38;14.80;99.90
31046;DHT22;17711;54.018;9.300;2023-07-20T02:59:06;14.70;99.90
31046;DHT22;17711;54.018;9.300;2023-07-20T03:01:35;14.70;99.90
31046;DHT22;17711;54.018;9.300;2023-07-20T03:04:04;14.60;99.90
31046;DHT22;17711;54.018;9.300;2023-07-20T03:06:35;14.50;99.90
31046;DHT22;17711;54.018;9.300;2023-07-20T03:09:04;14.50;99.90
31046;DHT22;17711;54.018;9.300;2023-07-20T03:11:33;14.40;99.90
31046;DHT22;17711;54.018;9.300;2023-07-20T03:14:03;14.40;99.90
31046;DHT22;17711;54.018;9.300;2023-07-20T03:16:32;14.40;99.90
31046;DHT22;17711;54.018;9.300;2023-07-20T03:19:01;14.30;99.90
31046;DHT22;17711;54.018;9.300;2023-07-20T03:21:29;14.30;99.90
31046;DHT22;17711;54.018;9.300;2023-07-20T03:23:58;14.30;99.90
31046;DHT22;17711;54.018;9.300;2023-07-20T03:26:27;14.30;99.90
31046;DHT22;17711;54.018;9.300;2023-07-20T03:28:55;14.30;99.90
31046;DHT22;17711;54.018;9.300;2023-07-20T03:31:25;14.20;99.90
31046;DHT22;17711;54.018;9.300;2023-07-20T03:33:54;14.20;99.90
31046;DHT22;17711;54.018;9.300;2023-07-20T03:36:22;14.20;99.90
31046;DHT22;17711;54.018;9.300;2023-07-20T03:38:51;14.20;99.90
31046;DHT22;17711;54.018;9.300;2023-07-20T03:41:20;14.20;99.90
31046;DHT22;17711;54.018;9.300;2023-07-20T03:43:49;14.20;99.90
31046;DHT22;17711;54.018;9.300;2023-07-20T03:46:17;14.10;99.90
31046;DHT22;17711;54.018;9.300;2023-07-20T03:48:48;14.10;99.90
31046;DHT22;17711;54.018;9.300;2023-07-20T03:51:17;14.10;99.90
31046;DHT22;17711;54.018;9.300;2023-07-20T03:53:45;14.00;99.90
31046;DHT22;17711;54.018;9.300;2023-07-20T03:56:14;14.00;99.90
31046;DHT22;17711;54.018;9.300;2023-07-20T03:58:43;14.00;99.90
31046;DHT22;17711;54.018;9.300;2023-07-20T04:01:13;14.10;99.90
31046;DHT22;17711;54.018;9.300;2023-07-20T04:03:43;14.20;99.90
31046;DHT22;17711;54.018;9.300;2023-07-20T04:06:17;14.20;99.90
31046;DHT22;17711;54.018;9.300;2023-07-20T04:08:45;14.30;99.90
31046;DHT22;17711;54.018;9.300;2023-07-20T04:11:15;14.40;99.90
31046;DHT22;17711;54.018;9.300;2023-07-20T04:13:44;14.50;99.90
31046;DHT22;17711;54.018;9.300;2023-07-20T04:16:12;14.70;99.90
31046;DHT22;17711;54.018;9.300;2023-07-20T04:18:41;14.70;99.90
31046;DHT22;17711;54.018;9.300;2023-07-20T04:21:09;14.80;99.90
31046;DHT22;17711;54.018;9.300;2023-07-20T04:23:39;14.80;99.90
31046;DHT22;17711;54.018;9.300;2023-07-20T04:26:08;14.80;99.90
31046;DHT22;17711;54.018;9.300;2023-07-20T04:28:39;14.80;99.90
31046;DHT22;17711;54.018;9.300;2023-07-20T04:31:10;14.80;99.90
31046;DHT22;17711;54.018;9.300;2023-07-20T04:33:40;14.80;99.90
31046;DHT22;17711;54.018;9.300;2023-07-20T04:36:08;14.80;99.90
31046;DHT22;17711;54.018;9.300;2023-07-20T04:38:38;14.70;99.90
31046;DHT22;17711;54.018;9.300;2023-07-20T04:41:07;14.70;99.90
31046;DHT22;17711;54.018;9.300;2023-07-20T04:43:35;14.70;99.90
31046;DHT22;17711;54.018;9.300;2023-07-20T04:46:04;14.70;99.90
31046;DHT22;17711;54.018;9.300;2023-07-20T04:48:33;14.70;99.90
31046;DHT22;17711;54.018;9.300;2023-07-20T04:51:02;14.70;99.90
31046;DHT22;17711;54.018;9.300;2023-07-20T04:53:31;14.70;99.90
31046;DHT22;17711;54.018;9.300;2023-07-20T04:56:01;14.70;99.90
31046;DHT22;17711;54.018;9.300;2023-07-20T04:58:29;14.70;99.90
31046;DHT22;17711;54.018;9.300;2023-07-20T05:00:58;14.70;99.90
31046;DHT22;17711;54.018;9.300;2023-07-20T05:03:26;14.70;99.90
31046;DHT22;17711;54.018;9.300;2023-07-20T05:05:55;14.70;99.90
31046;DHT22;17711;54.018;9.300;2023-07-20T05:08:24;14.80;99.90
31046;DHT22;17711;54.018;9.300;2023-07-20T05:10:53;14.90;99.90
31046;DHT22;17711;54.018;9.300;2023-07-20T05:13:23;15.00;99.90
31046;DHT22;17711;54.018;9.300;2023-07-20T05:15:51;15.10;99.90
31046;DHT22;17711;54.018;9.300;2023-07-20T05:18:20;15.40;99.90
31046;DHT22;17711;54.018;9.300;2023-07-20T05:20:49;15.70;99.90
31046;DHT22;17711;54.018;9.300;2023-07-20T05:23:18;15.90;99.90
31046;DHT22;17711;54.018;9.300;2023-07-20T05:25:53;16.10;99.90
31046;DHT22;17711;54.018;9.300;2023-07-20T05:28:26;16.20;99.90
31046;DHT22;17711;54.018;9.300;2023-07-20T05:30:55;16.30;99.90
31046;DHT22;17711;54.018;9.300;2023-07-20T05:33:26;16.20;99.90
31046;DHT22;17711;54.018;9.300;2023-07-20T05:35:55;16.20;99.90
31046;DHT22;17711;54.018;9.300;2023-07-20T05:38:23;16.10;99.90
31046;DHT22;17711;54.018;9.300;2023-07-20T05:40:52;16.20;99.90
31046;DHT22;17711;54.018;9.300;2023-07-20T05:43:21;16.20;99.90
31046;DHT22;17711;54.018;9.300;2023-07-20T05:45:51;16.20;99.90
31046;DHT22;17711;54.018;9.300;2023-07-20T05:48:19;16.20;99.90
31046;DHT22;17711;54.018;9.300;2023-07-20T05:50:48;16.20;99.90
31046;DHT22;17711;54.018;9.300;2023-07-20T05:53:16;16.10;99.90
31046;DHT22;17711;54.018;9.300;2023-07-20T05:55:52;16.00;99.90
31046;DHT22;17711;54.018;9.300;2023-07-20T05:58:20;16.10;99.90
31046;DHT22;17711;54.018;9.300;2023-07-20T06:00:51;16.10;99.90
31046;DHT22;17711;54.018;9.300;2023-07-20T06:03:19;16.10;99.90
31046;DHT22;17711;54.018;9.300;2023-07-20T06:05:48;16.10;99.90
31046;DHT22;17711;54.018;9.300;2023-07-20T06:08:17;16.10;99.90
31046;DHT22;17711;54.018;9.300;2023-07-20T06:10:50;16.10;99.90
31046;DHT22;17711;54.018;9.300;2023-07-20T06:13:19;16.00;99.90
31046;DHT22;17711;54.018;9.300;2023-07-20T06:15:48;16.10;99.90
31046;DHT22;17711;54.018;9.300;2023-07-20T06:18:18;16.10;99.90
31046;DHT22;17711;54.018;9.300;2023-07-20T06:20:51;16.20;99.90
31046;DHT22;17711;54.018;9.300;2023-07-20T06:23:19;16.20;99.90
31046;DHT22;17711;54.018;9.300;2023-07-20T06:25:48;16.20;99.90
31046;DHT22;17711;54.018;9.300;2023-07-20T06:28:17;16.30;99.90
31046;DHT22;17711;54.018;9.300;2023-07-20T06:30:46;16.30;99.90
31046;DHT22;17711;54.018;9.300;2023-07-20T06:33:15;16.40;99.90
31046;DHT22;17711;54.018;9.300;2023-07-20T06:35:45;16.50;99.90
31046;DHT22;17711;54.018;9.300;2023-07-20T06:38:14;16.80;99.90
31046;DHT22;17711;54.018;9.300;2023-07-20T06:40:46;17.00;99.90
31046;DHT22;17711;54.018;9.300;2023-07-20T06:43:15;17.00;99.90
31046;DHT22;17711;54.018;9.300;2023-07-20T06:45:51;16.80;99.90
31046;DHT22;17711;54.018;9.300;2023-07-20T06:48:21;16.70;99.90
31046;DHT22;17711;54.018;9.300;2023-07-20T06:50:52;16.70;99.90
31046;DHT22;17711;54.018;9.300;2023-07-20T06:53:22;16.70;99.90
31046;DHT22;17711;54.018;9.300;2023-07-20T06:55:51;16.70;99.90
31046;DHT22;17711;54.018;9.300;2023-07-20T06:58:24;16.70;99.90
31046;DHT22;17711;54.018;9.300;2023-07-20T07:00:52;16.70;99.90
31046;DHT22;17711;54.018;9.300;2023-07-20T07:03:21;16.70;99.90
31046;DHT22;17711;54.018;9.300;2023-07-20T07:05:56;16.80;99.90
31046;DHT22;17711;54.018;9.300;2023-07-20T07:08:25;16.80;99.90
31046;DHT22;17711;54.018;9.300;2023-07-20T07:10:54;16.90;99.90
31046;DHT22;17711;54.018;9.300;2023-07-20T07:13:22;17.00;99.90
31046;DHT22;17711;54.018;9.300;2023-07-20T07:15:52;17.20;99.90
31046;DHT22;17711;54.018;9.300;2023-07-20T07:18:20;17.30;99.90
31046;DHT22;17711;54.018;9.300;2023-07-20T07:20:52;17.40;99.90
31046;DHT22;17711;54.018;9.300;2023-07-20T07:23:22;17.50;99.90
31046;DHT22;17711;54.018;9.300;2023-07-20T07:25:51;17.50;99.90
31046;DHT22;17711;54.018;9.300;2023-07-20T07:28:19;17.70;99.90
31046;DHT22;17711;54.018;9.300;2023-07-20T07:30:48;17.90;99.90
31046;DHT22;17711;54.018;9.300;2023-07-20T07:33:16;17.60;99.90
31046;DHT22;17711;54.018;9.300;2023-07-20T07:35:45;17.40;99.90
31046;DHT22;17711;54.018;9.300;2023-07-20T07:38:14;17.30;99.90
31046;DHT22;17711;54.018;9.300;2023-07-20T07:41:04;17.40;99.90
31046;DHT22;17711;54.018;9.300;2023-07-20T07:43:33;17.60;99.90
31046;DHT22;17711;54.018;9.300;2023-07-20T07:46:02;17.80;99.90
31046;DHT22;17711;54.018;9.300;2023-07-20T07:48:31;18.00;99.90
31046;DHT22;17711;54.018;9.300;2023-07-20T07:50:59;18.30;99.90
31046;DHT22;17711;54.018;9.300;2023-07-20T07:53:28;18.10;99.90
31046;DHT22;17711;54.018;9.300;2023-07-20T07:55:56;18.00;99.90
31046;DHT22;17711;54.018;9.300;2023-07-20T07:58:26;18.00;99.90
31046;DHT22;17711;54.018;9.300;2023-07-20T08:00:55;18.10;99.90
31046;DHT22;17711;54.018;9.300;2023-07-20T08:03:23;18.00;99.90
31046;DHT22;17711;54.018;9.300;2023-07-20T08:05:54;17.70;99.90
31046;DHT22;17711;54.018;9.300;2023-07-20T08:08:23;17.60;99.90
31046;DHT22;17711;54.018;9.300;2023-07-20T08:10:53;17.70;99.90
31046;DHT22;17711;54.018;9.300;2023-07-20T08:13:22;17.90;99.90
31046;DHT22;17711;54.018;9.300;2023-07-20T08:15:53;18.10;99.90
31046;DHT22;17711;54.018;9.300;2023-07-20T08:18:21;18.30;99.90
31046;DHT22;17711;54.018;9.300;2023-07-20T08:20:50;18.60;99.90
31046;DHT22;17711;54.018;9.300;2023-07-20T08:23:19;19.10;99.90
31046;DHT22;17711;54.018;9.300;2023-07-20T08:25:48;19.20;99.90
31046;DHT22;17711;54.018;9.300;2023-07-20T08:28:17;19.30;99.90
31046;DHT22;17711;54.018;9.300;2023-07-20T08:30:47;19.30;99.90
31046;DHT22;17711;54.018;9.300;2023-07-20T08:33:18;19.50;99.90
31046;DHT22;17711;54.018;9.300;2023-07-20T08:35:47;19.60;99.90
31046;DHT22;17711;54.018;9.300;2023-07-20T08:38:16;20.30;99.90
31046;DHT22;17711;54.018;9.300;2023-07-20T08:40:45;19.60;99.90
31046;DHT22;17711;54.018;9.300;2023-07-20T08:43:15;19.00;99.90
31046;DHT22;17711;54.018;9.300;2023-07-20T08:45:45;19.30;99.90
31046;DHT22;17711;54.018;9.300;2023-07-20T08:48:17;20.50;99.90
31046;DHT22;17711;54.018;9.300;2023-07-20T08:50:48;21.70;99.90
31046;DHT22;17711;54.018;9.300;2023-07-20T08:53:18;22.60;99.90
31046;DHT22;17711;54.018;9.300;2023-07-20T08:55:49;23.30;99.90
31046;DHT22;17711;54.018;9.300;2023-07-20T08:58:18;23.60;99.90
31046;DHT22;17711;54.018;9.300;2023-07-20T09:00:47;23.70;99.90
31046;DHT22;17711;54.018;9.300;2023-07-20T09:03:21;23.50;99.90
31046;DHT22;17711;54.018;9.300;2023-07-20T09:05:49;23.80;99.90
31046;DHT22;17711;54.018;9.300;2023-07-20T09:08:19;24.30;99.90
31046;DHT22;17711;54.018;9.300;2023-07-20T09:10:47;24.60;88.30
31046;DHT22;17711;54.018;9.300;2023-07-20T09:13:16;23.50;99.90
31046;DHT22;17711;54.018;9.300;2023-07-20T09:15:52;23.30;99.90
31046;DHT22;17711;54.018;9.300;2023-07-20T09:18:27;22.30;99.90
31046;DHT22;17711;54.018;9.300;2023-07-20T09:20:58;22.90;99.90
31046;DHT22;17711;54.018;9.300;2023-07-20T09:23:32;24.00;99.90
31046;DHT22;17711;54.018;9.300;2023-07-20T09:26:01;25.00;99.90
31046;DHT22;17711;54.018;9.300;2023-07-20T09:28:42;25.80;92.70
31046;DHT22;17711;54.018;9.300;2023-07-20T09:31:17;26.20;91.10
31046;DHT22;17711;54.018;9.300;2023-07-20T09:33:48;26.00;67.70
31046;DHT22;17711;54.018;9.300;2023-07-20T09:36:20;25.40;71.20
31046;DHT22;17711;54.018;9.300;2023-07-20T09:39:08;24.40;81.10
31046;DHT22;17711;54.018;9.300;2023-07-20T09:41:41;24.60;90.90
31046;DHT22;17711;54.018;9.300;2023-07-20T09:44:14;24.50;87.90
31046;DHT22;17711;54.018;9.300;2023-07-20T09:46:47;25.60;82.10
31046;DHT22;17711;54.018;9.300;2023-07-20T09:49:20;25.60;82.20
31046;DHT22;17711;54.018;9.300;2023-07-20T09:51:52;24.80;79.60
31046;DHT22;17711;54.018;9.300;2023-07-20T09:54:22;25.40;85.20
31046;DHT22;17711;54.018;9.300;2023-07-20T09:56:51;25.70;93.90
31046;DHT22;17711;54.018;9.300;2023-07-20T09:59:20;25.00;93.50
31046;DHT22;17711;54.018;9.300;2023-07-20T10:01:49;24.50;93.50
31046;DHT22;17711;54.018;9.300;2023-07-20T10:04:23;24.20;99.90
31046;DHT22;17711;54.018;9.300;2023-07-20T10:06:55;22.60;99.90
31046;DHT22;17711;54.018;9.300;2023-07-20T10:09:24;21.50;99.90
31046;DHT22;17711;54.018;9.300;2023-07-20T10:11:55;20.80;99.90
31046;DHT22;17711;54.018;9.300;2023-07-20T10:14:52;21.30;99.90
31046;DHT22;17711;54.018;9.300;2023-07-20T10:17:26;21.80;99.90
31046;DHT22;17711;54.018;9.300;2023-07-20T10:19:57;22.40;99.90
31046;DHT22;17711;54.018;9.300;2023-07-20T10:22:35;22.50;99.90
31046;DHT22;17711;54.018;9.300;2023-07-20T10:25:08;22.50;99.90
31046;DHT22;17711;54.018;9.300;2023-07-20T10:27:38;21.70;99.90
31046;DHT22;17711;54.018;9.300;2023-07-20T10:30:08;21.10;99.90
31046;DHT22;17711;54.018;9.300;2023-07-20T10:32:40;21.10;99.90
31046;DHT22;17711;54.018;9.300;2023-07-20T10:35:15;21.00;99.90
31046;DHT22;17711;54.018;9.300;2023-07-20T10:37:48;21.40;99.90
31046;DHT22;17711;54.018;9.300;2023-07-20T10:40:26;22.70;99.90
31046;DHT22;17711;54.018;9.300;2023-07-20T10:42:59;24.30;99.90
31046;DHT22;17711;54.018;9.300;2023-07-20T10:45:37;23.80;99.90
31046;DHT22;17711;54.018;9.300;2023-07-20T10:48:14;22.70;99.90
31046;DHT22;17711;54.018;9.300;2023-07-20T10:50:48;23.40;99.90
31046;DHT22;17711;54.018;9.300;2023-07-20T10:53:34;23.00;99.90
31046;DHT22;17711;54.018;9.300;2023-07-20T10:56:07;22.60;99.90
31046;DHT22;17711;54.018;9.300;2023-07-20T10:58:36;22.20;99.90
31046;DHT22;17711;54.018;9.300;2023-07-20T11:01:05;21.90;99.90
31046;DHT22;17711;54.018;9.300;2023-07-20T11:03:37;21.90;99.90
31046;DHT22;17711;54.018;9.300;2023-07-20T11:06:31;21.80;99.90
31046;DHT22;17711;54.018;9.300;2023-07-20T11:09:05;23.20;99.90
31046;DHT22;17711;54.018;9.300;2023-07-20T11:11:36;24.70;99.90
31046;DHT22;17711;54.018;9.300;2023-07-20T11:14:06;25.00;93.20
31046;DHT22;17711;54.018;9.300;2023-07-20T11:16:37;25.30;92.50
31046;DHT22;17711;54.018;9.300;2023-07-20T11:19:13;25.70;87.10
31046;DHT22;17711;54.018;9.300;2023-07-20T11:22:05;26.00;97.00
31046;DHT22;17711;54.018;9.300;2023-07-20T11:24:39;26.80;73.50
31046;DHT22;17711;54.018;9.300;2023-07-20T11:27:07;26.40;80.60
31046;DHT22;17711;54.018;9.300;2023-07-20T11:29:37;26.70;89.20
31046;DHT22;17711;54.018;9.300;2023-07-20T11:32:07;26.60;70.50
31046;DHT22;17711;54.018;9.300;2023-07-20T11:34:36;25.60;84.90
31046;DHT22;17711;54.018;9.300;2023-07-20T11:37:06;25.00;91.80
31046;DHT22;17711;54.018;9.300;2023-07-20T11:39:37;24.90;99.90
31046;DHT22;17711;54.018;9.300;2023-07-20T11:42:08;25.10;85.60
31046;DHT22;17711;54.018;9.300;2023-07-20T11:44:37;25.60;83.50
31046;DHT22;17711;54.018;9.300;2023-07-20T11:47:08;26.20;74.30
31046;DHT22;17711;54.018;9.300;2023-07-20T11:49:38;26.90;62.90
31046;DHT22;17711;54.018;9.300;2023-07-20T11:52:10;27.60;67.10
31046;DHT22;17711;54.018;9.300;2023-07-20T11:54:40;27.90;61.20
31046;DHT22;17711;54.018;9.300;2023-07-20T11:57:17;28.50;52.00
31046;DHT22;17711;54.018;9.300;2023-07-20T11:59:53;27.20;56.80
31046;DHT22;17711;54.018;9.300;2023-07-20T12:02:27;26.30;63.40
31046;DHT22;17711;54.018;9.300;2023-07-20T12:04:56;25.30;81.70
31046;DHT22;17711;54.018;9.300;2023-07-20T12:07:27;25.40;88.70
31046;DHT22;17711;54.018;9.300;2023-07-20T12:10:04;25.10;68.40
31046;DHT22;17711;54.018;9.300;2023-07-20T12:12:33;24.60;77.90
31046;DHT22;17711;54.018;9.300;2023-07-20T12:15:20;23.90;94.40
31046;DHT22;17711;54.018;9.300;2023-07-20T12:17:52;23.60;99.60
31046;DHT22;17711;54.018;9.300;2023-07-20T12:20:26;23.30;97.50
31046;DHT22;17711;54.018;9.300;2023-07-20T12:22:59;23.00;99.90
31046;DHT22;17711;54.018;9.300;2023-07-20T12:25:37;22.60;99.90
31046;DHT22;17711;54.018;9.300;2023-07-20T12:28:08;23.00;99.90
31046;DHT22;17711;54.018;9.300;2023-07-20T12:30:37;23.60;99.90
31046;DHT22;17711;54.018;9.300;2023-07-20T12:33:05;24.20;94.80
31046;DHT22;17711;54.018;9.300;2023-07-20T12:35:34;24.90;81.70
31046;DHT22;17711;54.018;9.300;2023-07-20T12:38:04;26.00;90.10
31046;DHT22;17711;54.018;9.300;2023-07-20T12:40:34;26.20;62.60
31046;DHT22;17711;54.018;9.300;2023-07-20T12:43:03;26.20;66.70
31046;DHT22;17711;54.018;9.300;2023-07-20T12:45:32;26.60;74.60
31046;DHT22;17711;54.018;9.300;2023-07-20T12:48:01;27.30;59.10
31046;DHT22;17711;54.018;9.300;2023-07-20T12:50:30;28.40;58.20
31046;DHT22;17711;54.018;9.300;2023-07-20T12:52:58;28.20;55.20
31046;DHT22;17711;54.018;9.300;2023-07-20T12:55:28;28.40;52.90
31046;DHT22;17711;54.018;9.300;2023-07-20T12:57:57;28.20;51.90
31046;DHT22;17711;54.018;9.300;2023-07-20T13:00:26;28.70;50.50
31046;DHT22;17711;54.018;9.300;2023-07-20T13:02:55;28.60;49.30
31046;DHT22;17711;54.018;9.300;2023-07-20T13:05:26;28.10;53.80
31046;DHT22;17711;54.018;9.300;2023-07-20T13:07:58;27.20;55.30
31046;DHT22;17711;54.018;9.300;2023-07-20T13:10:31;26.40;59.10
31046;DHT22;17711;54.018;9.300;2023-07-20T13:12:59;26.30;60.10
31046;DHT22;17711;54.018;9.300;2023-07-20T13:15:30;25.90;61.10
31046;DHT22;17711;54.018;9.300;2023-07-20T13:18:00;26.10;64.70
31046;DHT22;17711;54.018;9.300;2023-07-20T13:20:28;25.80;64.20
31046;DHT22;17711;54.018;9.300;2023-07-20T13:22:57;24.80;66.70
31046;DHT22;17711;54.018;9.300;2023-07-20T13:25:26;25.60;61.60
31046;DHT22;17711;54.018;9.300;2023-07-20T13:27:56;26.90;65.10
31046;DHT22;17711;54.018;9.300;2023-07-20T13:30:25;27.20;52.20
31046;DHT22;17711;54.018;9.300;2023-07-20T13:32:54;26.60;50.80
31046;DHT22;17711;54.018;9.300;2023-07-20T13:35:23;27.10;53.30
31046;DHT22;17711;54.018;9.300;2023-07-20T13:37:51;27.90;49.90
31046;DHT22;17711;54.018;9.300;2023-07-20T13:40:20;27.80;52.70
31046;DHT22;17711;54.018;9.300;2023-07-20T13:42:50;28.60;53.20
31046;DHT22;17711;54.018;9.300;2023-07-20T13:45:21;28.80;47.70
31046;DHT22;17711;54.018;9.300;2023-07-20T13:47:50;28.70;48.10
31046;DHT22;17711;54.018;9.300;2023-07-20T13:50:19;28.80;47.40
31046;DHT22;17711;54.018;9.300;2023-07-20T13:52:53;29.30;48.70
31046;DHT22;17711;54.018;9.300;2023-07-20T13:55:24;28.80;48.60
31046;DHT22;17711;54.018;9.300;2023-07-20T13:57:56;28.80;46.90
31046;DHT22;17711;54.018;9.300;2023-07-20T14:00:26;28.90;45.60
31046;DHT22;17711;54.018;9.300;2023-07-20T14:03:00;28.50;45.00
31046;DHT22;17711;54.018;9.300;2023-07-20T14:05:32;29.50;46.50
31046;DHT22;17711;54.018;9.300;2023-07-20T14:08:04;29.60;46.00
31046;DHT22;17711;54.018;9.300;2023-07-20T14:10:33;29.80;43.40
31046;DHT22;17711;54.018;9.300;2023-07-20T14:13:22;30.30;46.20
31046;DHT22;17711;54.018;9.300;2023-07-20T14:16:09;30.80;43.80
31046;DHT22;17711;54.018;9.300;2023-07-20T14:18:38;30.90;42.90
31046;DHT22;17711;54.018;9.300;2023-07-20T14:21:08;30.10;44.20
31046;DHT22;17711;54.018;9.300;2023-07-20T14:23:36;28.90;41.70
31046;DHT22;17711;54.018;9.300;2023-07-20T14:26:05;28.30;44.50
31046;DHT22;17711;54.018;9.300;2023-07-20T14:28:38;28.10;47.40
31046;DHT22;17711;54.018;9.300;2023-07-20T14:31:09;28.40;44.70
31046;DHT22;17711;54.018;9.300;2023-07-20T14:33:37;28.50;48.90
31046;DHT22;17711;54.018;9.300;2023-07-20T14:36:07;28.30;44.70
31046;DHT22;17711;54.018;9.300;2023-07-20T14:38:37;27.50;49.60
31046;DHT22;17711;54.018;9.300;2023-07-20T14:41:07;27.50;52.70
31046;DHT22;17711;54.018;9.300;2023-07-20T14:43:36;28.40;51.40
31046;DHT22;17711;54.018;9.300;2023-07-20T14:46:05;27.90;47.60
31046;DHT22;17711;54.018;9.300;2023-07-20T14:48:35;27.50;47.90
31046;DHT22;17711;54.018;9.300;2023-07-20T14:51:04;27.00;51.10
31046;DHT22;17711;54.018;9.300;2023-07-20T14:53:33;26.80;54.10
31046;DHT22;17711;54.018;9.300;2023-07-20T14:56:03;27.20;53.80
31046;DHT22;17711;54.018;9.300;2023-07-20T14:58:32;27.60;49.20
31046;DHT22;17711;54.018;9.300;2023-07-20T15:01:02;26.80;54.00
31046;DHT22;17711;54.018;9.300;2023-07-20T15:03:31;27.30;58.20
31046;DHT22;17711;54.018;9.300;2023-07-20T15:06:01;26.70;49.70
31046;DHT22;17711;54.018;9.300;2023-07-20T15:08:30;26.70;55.70
31046;DHT22;17711;54.018;9.300;2023-07-20T15:10:59;26.60;54.20
31046;DHT22;17711;54.018;9.300;2023-07-20T15:13:28;26.90;51.40
31046;DHT22;17711;54.018;9.300;2023-07-20T15:15:57;26.20;52.80
31046;DHT22;17711;54.018;9.300;2023-07-20T15:18:26;26.00;52.60
31046;DHT22;17711;54.018;9.300;2023-07-20T15:21:15;26.00;54.60
31046;DHT22;17711;54.018;9.300;2023-07-20T15:23:43;26.30;56.40
31046;DHT22;17711;54.018;9.300;2023-07-20T15:26:12;26.10;57.40
31046;DHT22;17711;54.018;9.300;2023-07-20T15:28:42;27.00;55.50
31046;DHT22;17711;54.018;9.300;2023-07-20T15:31:10;26.90;52.00
31046;DHT22;17711;54.018;9.300;2023-07-20T15:33:40;26.50;53.80
31046;DHT22;17711;54.018;9.300;2023-07-20T15:36:10;26.30;55.20
31046;DHT22;17711;54.018;9.300;2023-07-20T15:38:40;25.70;57.50
31046;DHT22;17711;54.018;9.300;2023-07-20T15:41:09;26.10;58.60
31046;DHT22;17711;54.018;9.300;2023-07-20T15:43:40;25.50;61.80
31046;DHT22;17711;54.018;9.300;2023-07-20T15:46:43;25.60;68.30
31046;DHT22;17711;54.018;9.300;2023-07-20T15:49:12;25.10;65.10
31046;DHT22;17711;54.018;9.300;2023-07-20T15:51:41;24.90;78.90